Time;durP1;ratioP1;P1;durP2;ratioP2;P2;SDS_P1;SDS_P2;PMS_P1;PMS_P2;Temp;Humidity;BMP_temperature;BMP_pressure;BME280_temperature;BME280_humidity;BME280_pressure;Samples;Min_cycle;Max_cycle;Signal;HPM_P1;HPM_P2
2021/03/16 00:00:38;;;;;;;21.50;17.62;;;;;;;5.20;80.59;99511.16;1681645;84;21985;-45
2021/03/16 00:03:32;;;;;;;21.00;18.00;;;;;;;5.20;80.68;99511.16;1682758;83;21187;-45
2021/03/16 00:06:06;;;;;;;21.80;16.57;;;;;;;5.17;80.67;99511.33;1684214;83;21145;-43
2021/03/16 00:08:33;;;;;;;20.65;16.73;;;;;;;5.16;80.71;99513.09;1712247;82;21142;-44
2021/03/16 00:11:03;;;;;;;21.45;17.82;;;;;;;5.16;80.72;99517.05;1679790;84;21595;-43
2021/03/16 00:13:31;;;;;;;21.90;18.85;;;;;;;5.19;80.58;99516.92;1685061;83;21184;-45
2021/03/16 00:15:59;;;;;;;21.65;18.05;;;;;;;5.16;80.59;99513.09;1674330;84;21161;-45
2021/03/16 00:18:27;;;;;;;20.05;16.05;;;;;;;5.16;80.48;99518.84;1691808;83;21125;-45
2021/03/16 00:20:55;;;;;;;20.68;17.82;;;;;;;5.12;80.45;99512.87;1692127;83;21188;-46
2021/03/16 00:23:23;;;;;;;23.60;18.70;;;;;;;5.10;80.47;99514.73;1691962;83;21557;-42
2021/03/16 00:25:50;;;;;;;24.00;19.85;;;;;;;5.06;80.53;99522.89;1691646;83;21553;-44
2021/03/16 00:28:18;;;;;;;24.10;19.75;;;;;;;5.05;80.67;99518.55;1694618;83;21130;-42
2021/03/16 00:30:46;;;;;;;20.02;16.62;;;;;;;5.05;80.77;99515.91;1695001;83;21180;-43
2021/03/16 00:33:14;;;;;;;18.00;15.10;;;;;;;5.08;80.56;99517.07;1696465;83;21148;-43
2021/03/16 00:35:41;;;;;;;18.05;14.47;;;;;;;5.11;80.22;99515.59;1696055;83;21480;-43
2021/03/16 00:38:09;;;;;;;20.15;16.57;;;;;;;5.17;80.02;99516.61;1693272;83;21343;-42
2021/03/16 00:40:37;;;;;;;20.85;16.55;;;;;;;5.20;79.69;99508.05;1694686;83;21165;-42
2021/03/16 00:43:05;;;;;;;16.75;14.65;;;;;;;5.21;79.66;99500.96;1696198;83;21148;-42
2021/03/16 00:45:32;;;;;;;16.75;14.38;;;;;;;5.21;79.65;99501.81;1675618;84;21169;-42
2021/03/16 00:48:00;;;;;;;17.30;13.45;;;;;;;5.21;79.48;99501.81;1696403;83;21157;-41
2021/03/16 00:50:30;;;;;;;13.50;11.53;;;;;;;5.25;79.22;99505.16;1655688;84;21595;-41
2021/03/16 00:52:58;;;;;;;16.37;13.72;;;;;;;5.26;78.94;99506.02;1694310;83;21176;-45
2021/03/16 00:55:28;;;;;;;15.35;11.97;;;;;;;;;;1689980;83;21133;-42
2021/03/16 00:57:56;;;;;;;15.80;12.85;;;;;;;5.14;78.88;99501.77;1694606;83;22037;-42
2021/03/16 01:00:24;;;;;;;13.93;12.37;;;;;;;5.12;79.00;99508.91;1692643;83;21181;-42
2021/03/16 01:02:52;;;;;;;15.93;13.08;;;;;;;5.12;79.14;99511.55;1677162;84;21154;-44
2021/03/16 01:05:21;;;;;;;16.80;13.48;;;;;;;5.12;79.01;99506.27;1689534;83;21158;-42
2021/03/16 01:07:49;;;;;;;15.43;13.22;;;;;;;5.11;79.04;99500.58;1693754;83;21168;-43
2021/03/16 01:10:18;;;;;;;16.52;13.22;;;;;;;5.08;79.10;99497.25;1697148;83;21193;-43
2021/03/16 01:12:46;;;;;;;14.25;11.80;;;;;;;5.07;79.15;99494.23;1694752;83;21157;-43
2021/03/16 01:15:14;;;;;;;16.35;13.35;;;;;;;5.08;79.08;99493.28;1694710;81;21165;-43
2021/03/16 01:17:41;;;;;;;14.03;12.45;;;;;;;5.10;79.07;99490.95;1743941;80;21192;-43
2021/03/16 01:20:15;;;;;;;15.93;13.93;;;;;;;5.11;79.10;99488.69;1736625;80;21157;-43
2021/03/16 01:22:43;;;;;;;15.68;12.33;;;;;;;5.12;79.11;99489.09;1731610;80;21690;-47
2021/03/16 01:25:11;;;;;;;15.05;12.13;;;;;;;5.17;79.11;99487.53;1740872;80;21125;-44
2021/03/16 01:27:41;;;;;;;16.40;14.18;;;;;;;5.19;79.07;99487.84;1740772;80;21150;-45
2021/03/16 01:30:11;;;;;;;16.42;13.28;;;;;;;5.23;78.90;99489.00;1744340;80;21113;-42
2021/03/16 01:32:41;;;;;;;16.73;14.05;;;;;;;5.21;78.77;99487.27;1737283;80;21117;-43
2021/03/16 01:35:12;;;;;;;19.45;14.50;;;;;;;5.16;78.64;99484.48;1737583;80;21163;-43
2021/03/16 01:37:40;;;;;;;16.30;13.22;;;;;;;5.08;78.57;99490.17;1743406;80;21137;-42
2021/03/16 01:40:16;;;;;;;22.32;14.47;;;;;;;5.05;78.58;99494.77;1737198;81;21177;-41
2021/03/16 01:42:44;;;;;;;15.63;12.85;;;;;;;5.04;78.63;99492.60;1738051;80;21169;-41
2021/03/16 01:45:16;;;;;;;16.05;13.50;;;;;;;5.06;78.66;99489.39;1736258;80;21573;-40
2021/03/16 01:47:48;;;;;;;14.73;12.90;;;;;;;5.09;78.64;99494.55;1738830;80;21147;-40
2021/03/16 01:50:20;;;;;;;17.37;14.10;;;;;;;5.13;78.54;99493.91;1738758;80;21182;-39
2021/03/16 01:52:50;;;;;;;16.73;14.23;;;;;;;5.17;78.44;99496.31;1738833;80;21176;-40
2021/03/16 01:55:17;;;;;;;14.95;12.73;;;;;;;5.19;78.32;99497.09;1736324;80;21617;-40
2021/03/16 01:57:47;;;;;;;18.30;15.08;;;;;;;5.23;78.16;99493.81;1738598;80;21623;-40
2021/03/16 02:00:40;;;;;;;17.85;13.80;;;;;;;5.26;77.97;99499.41;1736545;80;21577;-45
2021/03/16 02:03:28;;;;;;;16.25;13.40;;;;;;;5.29;77.80;99497.92;1741831;80;21138;-43
2021/03/16 02:06:32;;;;;;;16.10;13.53;;;;;;;5.32;77.72;99499.11;1737450;80;21141;-42
2021/03/16 02:09:43;;;;;;;14.53;12.20;;;;;;;5.32;77.52;99492.02;1739998;80;21153;-42
2021/03/16 02:12:35;;;;;;;;;;;;;;;5.31;77.48;99497.37;1705785;82;21150;-42
2021/03/16 02:15:26;;;;;;;15.08;12.88;;;;;;;5.32;77.37;99499.11;1669292;84;20194;-43
2021/03/16 02:18:18;;;;;;;17.98;12.78;;;;;;;5.32;77.29;99495.14;1739468;80;21546;-42
2021/03/16 02:21:16;;;;;;;17.95;12.82;;;;;;;5.29;77.07;99493.52;1739165;80;21109;-43
2021/03/16 02:24:17;;;;;;;16.00;13.38;;;;;;;5.30;76.93;99492.56;1713399;82;21183;-44
2021/03/16 02:27:18;;;;;;;16.32;13.13;;;;;;;5.31;76.79;99496.91;1742684;81;21744;-43
2021/03/16 02:30:06;;;;;;;18.87;13.43;;;;;;;5.31;76.64;99494.73;1739726;80;21130;-47
2021/03/16 02:32:53;;;;;;;17.82;13.95;;;;;;;5.32;76.55;99497.78;1741511;80;21150;-43
2021/03/16 02:35:41;;;;;;;14.25;12.18;;;;;;;5.30;76.43;99483.78;1739794;80;21146;-45
2021/03/16 02:38:30;;;;;;;15.23;13.13;;;;;;;5.30;76.35;99489.07;1730829;80;21130;-42
2021/03/16 02:41:17;;;;;;;15.13;12.68;;;;;;;5.28;76.18;99489.61;1738835;80;21110;-43
2021/03/16 02:44:05;;;;;;;19.05;14.25;;;;;;;5.27;76.08;99488.77;1739077;80;21122;-41
2021/03/16 02:46:52;;;;;;;18.67;12.82;;;;;;;5.26;75.84;99491.00;1717941;80;21701;-44
2021/03/16 02:49:42;;;;;;;16.90;13.93;;;;;;;5.23;75.71;99491.64;1736895;80;21113;-41
2021/03/16 02:52:27;;;;;;;16.50;13.90;;;;;;;5.20;75.55;99483.41;1731618;80;21114;-41
2021/03/16 02:55:14;;;;;;;18.12;13.50;;;;;;;5.18;75.42;99484.80;1732293;80;21273;-40
2021/03/16 02:58:01;;;;;;;15.68;13.40;;;;;;;5.16;75.31;99483.16;1713454;80;21164;-42
2021/03/16 03:00:47;;;;;;;16.93;13.55;;;;;;;5.16;75.18;99480.05;1699561;80;21141;-47
2021/03/16 03:03:35;;;;;;;16.20;12.75;;;;;;;5.15;75.08;99485.44;1713414;80;21118;-41
2021/03/16 03:06:21;;;;;;;18.12;12.82;;;;;;;5.13;74.94;99479.37;1740257;80;21143;-43
2021/03/16 03:09:07;;;;;;;18.52;13.78;;;;;;;5.12;74.80;99478.52;1731421;80;21145;-44
2021/03/16 03:11:53;;;;;;;16.75;12.05;;;;;;;5.10;74.71;99476.42;1717706;80;21129;-40
2021/03/16 03:14:39;;;;;;;18.00;13.22;;;;;;;5.08;74.63;99480.92;1716974;82;21117;-43
2021/03/16 03:17:26;;;;;;;16.15;13.70;;;;;;;5.08;74.49;99486.20;1740904;80;21133;-42
2021/03/16 03:20:14;;;;;;;14.70;13.15;;;;;;;5.06;74.30;99476.17;1741265;80;21288;-45
2021/03/16 03:23:22;;;;;;;16.77;11.95;;;;;;;5.05;74.15;99481.55;1744911;80;21117;-44
2021/03/16 03:26:12;;;;;;;17.48;13.43;;;;;;;5.04;74.01;99481.15;1743310;80;21149;-45
2021/03/16 03:28:58;;;;;;;16.52;13.20;;;;;;;5.01;73.99;99482.16;1745114;80;21110;-41
2021/03/16 03:31:46;;;;;;;17.32;12.80;;;;;;;4.97;73.91;99478.84;1732292;80;21565;-41
2021/03/16 03:34:35;;;;;;;18.20;12.95;;;;;;;4.95;73.86;99481.17;1740101;80;21141;-42
2021/03/16 03:37:22;;;;;;;15.75;12.28;;;;;;;4.92;73.76;99484.82;1744856;80;21113;-45
2021/03/16 03:40:09;;;;;;;16.45;12.43;;;;;;;4.88;73.62;99481.09;1739089;82;21125;-40
2021/03/16 03:43:03;;;;;;;14.30;11.85;;;;;;;4.84;73.51;99477.77;1741174;80;21145;-41
2021/03/16 03:45:51;;;;;;;15.00;11.38;;;;;;;4.82;73.49;99476.13;1744980;80;21141;-41
2021/03/16 03:48:37;;;;;;;16.15;12.33;;;;;;;4.77;73.41;99478.52;1737566;80;21121;-41
2021/03/16 03:51:23;;;;;;;14.25;11.95;;;;;;;4.76;73.50;99481.23;1737359;80;21111;-40
2021/03/16 03:54:09;;;;;;;15.83;11.50;;;;;;;4.73;73.49;99473.47;1744781;80;21153;-41
2021/03/16 03:56:55;;;;;;;16.80;12.18;;;;;;;4.70;73.39;99471.84;1745954;80;21269;-43
2021/03/16 03:59:44;;;;;;;15.55;11.80;;;;;;;4.68;73.26;99476.34;1745091;80;21609;-42
2021/03/16 04:02:32;;;;;;;13.28;10.75;;;;;;;4.66;73.20;99473.38;1737981;80;21491;-43
2021/03/16 04:05:18;;;;;;;20.37;12.35;;;;;;;4.64;73.20;99471.31;1743799;80;21137;-39
2021/03/16 04:08:05;;;;;;;16.15;11.93;;;;;;;4.63;73.12;99469.58;1740773;80;22141;-41
2021/03/16 04:10:52;;;;;;;14.45;10.75;;;;;;;4.59;73.04;99469.36;1740927;80;22082;-47
2021/03/16 04:13:37;;;;;;;16.20;11.68;;;;;;;4.57;73.00;99475.18;1741615;80;21114;-42
2021/03/16 04:16:23;;;;;;;16.30;12.90;;;;;;;4.54;72.99;99473.55;1735883;82;21160;-41
2021/03/16 04:19:10;;;;;;;14.45;11.65;;;;;;;4.51;73.04;99470.59;1713107;80;21505;-42
2021/03/16 04:21:55;;;;;;;17.70;12.60;;;;;;;4.48;72.97;99471.19;1744299;80;21135;-42
2021/03/16 04:24:41;;;;;;;17.60;12.82;;;;;;;4.45;72.90;99470.88;1740679;80;21978;-41
2021/03/16 04:27:27;;;;;;;16.40;12.18;;;;;;;4.43;72.79;99471.88;1713407;80;21556;-41
2021/03/16 04:30:14;;;;;;;17.30;11.73;;;;;;;4.41;72.79;99473.73;1738142;80;21121;-45
2021/03/16 04:33:00;;;;;;;18.23;12.18;;;;;;;4.40;72.67;99475.53;1734874;80;21142;-45
2021/03/16 04:35:47;;;;;;;15.53;12.13;;;;;;;4.42;72.64;99482.07;1717006;82;21601;-45
2021/03/16 04:38:33;;;;;;;16.48;12.82;;;;;;;4.42;72.54;99478.95;1737773;80;21153;-40
2021/03/16 04:41:19;;;;;;;15.20;12.53;;;;;;;4.42;72.63;99478.11;1736285;80;21652;-39
2021/03/16 04:44:05;;;;;;;16.70;12.75;;;;;;;4.39;72.64;99487.03;1738862;80;21506;-39
2021/03/16 04:46:51;;;;;;;20.70;12.35;;;;;;;4.36;72.65;99485.87;1736821;80;21121;-40
2021/03/16 04:49:37;;;;;;;17.67;12.50;;;;;;;4.35;72.72;99485.46;1735742;80;21134;-40
2021/03/16 04:52:23;;;;;;;15.95;12.78;;;;;;;4.34;72.80;99494.32;1733661;80;21164;-44
2021/03/16 04:55:10;;;;;;;17.02;12.63;;;;;;;4.33;72.97;99492.59;1737280;80;21636;-44
2021/03/16 04:57:56;;;;;;;14.87;11.50;;;;;;;4.31;73.07;99503.72;1738980;80;21255;-40
2021/03/16 05:00:41;;;;;;;14.87;12.00;;;;;;;4.29;73.05;99499.81;1742510;80;21160;-39
2021/03/16 05:03:27;;;;;;;17.20;12.80;;;;;;;4.30;73.16;99498.87;1739464;80;21145;-39
2021/03/16 05:06:14;;;;;;;16.62;13.18;;;;;;;4.31;73.36;99497.11;1739382;80;21181;-39
2021/03/16 05:09:02;;;;;;;15.60;11.22;;;;;;;4.30;73.25;99500.20;1738885;80;21105;-39
2021/03/16 05:11:47;;;;;;;17.17;11.68;;;;;;;4.30;73.42;99498.03;1736117;80;21177;-40
2021/03/16 05:14:33;;;;;;;16.02;11.25;;;;;;;4.31;73.47;99492.69;1740377;80;21550;-40
2021/03/16 05:17:21;;;;;;;18.45;13.85;;;;;;;4.29;73.52;99495.86;1736753;80;21152;-40
2021/03/16 05:20:09;;;;;;;14.50;11.95;;;;;;;4.29;73.60;99493.69;1743085;82;21585;-39
2021/03/16 05:22:55;;;;;;;15.00;11.45;;;;;;;4.30;73.55;99490.11;1738734;80;21273;-38
2021/03/16 05:25:41;;;;;;;15.78;12.43;;;;;;;4.31;73.53;99494.01;1739936;80;21114;-39
2021/03/16 05:28:26;;;;;;;17.60;12.75;;;;;;;4.34;73.64;99495.64;1741069;80;21298;-42
2021/03/16 05:31:12;;;;;;;17.32;12.58;;;;;;;4.37;73.69;99497.28;1704613;82;21102;-42
2021/03/16 05:33:59;;;;;;;18.05;12.63;;;;;;;4.38;73.65;99501.14;1711821;82;21154;-39
2021/03/16 05:36:44;;;;;;;13.50;11.90;;;;;;;4.41;73.63;99501.02;1674242;84;21118;-38
2021/03/16 05:39:30;;;;;;;16.95;13.13;;;;;;;4.42;73.65;99492.16;1686027;83;21166;-40
2021/03/16 05:42:17;;;;;;;17.70;11.88;;;;;;;4.45;73.77;99495.95;1684221;83;21166;-41
2021/03/16 05:45:04;;;;;;;15.43;11.90;;;;;;;4.48;73.79;99491.84;1679066;85;21161;-44
2021/03/16 05:47:51;;;;;;;19.73;13.13;;;;;;;4.50;73.89;99495.27;1693650;83;21142;-45
2021/03/16 05:50:37;;;;;;;17.05;13.00;;;;;;;4.52;73.96;99493.89;1684022;83;21125;-46
2021/03/16 05:53:23;;;;;;;19.80;12.50;;;;;;;4.54;74.06;99495.52;1683776;83;21135;-46
2021/03/16 05:56:09;;;;;;;21.37;14.53;;;;;;;4.57;74.12;99502.44;1684853;83;21571;-46
2021/03/16 05:59:06;;;;;;;16.02;12.65;;;;;;;4.59;74.12;99502.38;1685179;83;21295;-47
2021/03/16 06:02:28;;;;;;;20.50;13.13;;;;;;;4.65;74.20;99503.38;1858801;75;22873;-41
2021/03/16 06:05:16;;;;;;;15.25;12.33;;;;;;;4.65;74.24;99494.98;1769299;79;21141;-41
2021/03/16 06:08:02;;;;;;;16.05;12.43;;;;;;;4.71;74.32;99501.73;1812976;77;21125;-43
2021/03/16 06:10:48;;;;;;;19.65;14.07;;;;;;;4.77;74.32;99511.55;1808700;77;22025;-41
2021/03/16 06:13:35;;;;;;;18.75;12.85;;;;;;;4.84;74.22;99527.95;1812885;77;21305;-41
2021/03/16 06:16:23;;;;;;;14.68;11.12;;;;;;;4.92;74.16;99551.35;1817344;77;21310;-42
2021/03/16 06:19:10;;;;;;;15.88;12.35;;;;;;;5.00;74.02;99547.85;1813242;77;21124;-42
2021/03/16 06:22:03;;;;;;;17.87;12.05;;;;;;;5.05;73.96;99533.94;1819912;77;21138;-42
2021/03/16 06:24:49;;;;;;;16.75;11.88;;;;;;;5.10;73.96;99549.09;1748985;80;21724;-42
2021/03/16 06:27:35;;;;;;;18.70;12.60;;;;;;;5.17;74.04;99561.55;1810676;77;21145;-42
2021/03/16 06:30:25;;;;;;;19.75;11.88;;;;;;;5.28;73.87;99572.41;1820267;77;21134;-45
2021/03/16 06:33:23;;;;;;;19.07;12.68;;;;;;;5.39;73.75;99570.09;1822887;77;21097;-46
2021/03/16 06:36:11;;;;;;;17.02;10.38;;;;;;;5.47;73.59;99553.83;1816660;77;21307;-47
2021/03/16 06:38:57;;;;;;;15.50;11.00;;;;;;;5.54;73.17;99555.19;1809264;77;21297;-44
2021/03/16 06:41:43;;;;;;;16.32;11.40;;;;;;;5.59;73.02;99547.02;1818391;77;21622;-45
2021/03/16 06:44:29;;;;;;;17.52;11.53;;;;;;;5.63;73.00;99539.33;1813874;77;21171;-43
2021/03/16 06:47:15;;;;;;;17.37;10.78;;;;;;;5.65;73.02;99542.75;1809309;77;21424;-47
2021/03/16 06:50:01;;;;;;;15.70;10.85;;;;;;;5.71;72.77;99541.09;1810554;77;21125;-44
2021/03/16 06:52:49;;;;;;;20.43;11.55;;;;;;;5.77;72.59;99540.78;1819970;77;21606;-43
2021/03/16 06:55:35;;;;;;;16.00;11.65;;;;;;;5.85;72.35;99539.05;1764083;79;21291;-43
2021/03/16 06:58:27;;;;;;;16.57;11.48;;;;;;;5.89;72.15;99534.42;1753741;80;21307;-42
2021/03/16 07:01:16;;;;;;;15.50;12.23;;;;;;;5.91;71.88;99529.44;1739992;80;21343;-48
2021/03/16 07:04:17;;;;;;;13.18;10.58;;;;;;;5.96;71.87;99523.94;1747866;80;21126;-47
2021/03/16 07:07:03;;;;;;;14.20;10.43;;;;;;;5.98;71.43;99528.20;1795198;77;21138;-47
2021/03/16 07:09:50;;;;;;;13.28;10.93;;;;;;;6.01;71.40;99530.67;1817065;77;21341;-46
2021/03/16 07:12:36;;;;;;;13.60;11.22;;;;;;;6.06;71.48;99533.08;1818138;76;21132;-47
2021/03/16 07:15:23;;;;;;;16.85;11.28;;;;;;;6.11;71.57;99528.86;1792547;77;21141;-43
2021/03/16 07:18:12;;;;;;;14.83;10.23;;;;;;;6.14;71.58;99530.86;1783114;77;21118;-44
2021/03/16 07:21:02;;;;;;;17.40;11.18;;;;;;;6.19;71.29;99534.10;1818821;77;21584;-44
2021/03/16 07:23:53;;;;;;;15.43;10.55;;;;;;;6.24;71.25;99535.17;1817547;77;21101;-47
2021/03/16 07:26:39;;;;;;;16.90;9.85;;;;;;;6.31;71.34;99541.84;1757551;79;21579;-51
2021/03/16 07:29:25;;;;;;;13.83;10.08;;;;;;;6.37;71.46;99541.97;1813543;77;21105;-47
2021/03/16 07:32:12;;;;;;;13.35;9.85;;;;;;;6.44;71.35;99531.41;1824421;76;21152;-47
2021/03/16 07:35:00;;;;;;;13.75;10.75;;;;;;;6.49;71.05;99523.59;1821674;77;21149;-46
2021/03/16 07:37:46;;;;;;;14.40;10.43;;;;;;;6.54;71.15;99523.33;1803816;77;21795;-47
2021/03/16 07:40:32;;;;;;;14.58;10.38;;;;;;;6.62;70.62;99524.22;1817631;77;21118;-45
2021/03/16 07:43:18;;;;;;;15.30;10.50;;;;;;;6.69;70.38;99514.98;1813357;77;21271;-48
2021/03/16 07:46:16;;;;;;;15.13;10.10;;;;;;;6.77;70.29;99517.19;1753524;80;21225;-46
2021/03/16 07:49:02;;;;;;;15.18;10.70;;;;;;;6.83;70.23;99520.80;1768105;79;21152;-46
2021/03/16 07:51:49;;;;;;;14.98;9.90;;;;;;;6.90;69.67;99522.14;1742496;80;21910;-48
2021/03/16 07:54:39;;;;;;;15.32;10.10;;;;;;;6.97;69.62;99517.35;1820498;77;21263;-48
2021/03/16 07:57:30;;;;;;;14.58;10.08;;;;;;;7.00;69.63;99514.03;1822703;77;21184;-49
2021/03/16 08:00:29;;;;;;;16.52;11.20;;;;;;;7.03;69.58;99523.16;1825207;77;21295;-46
2021/03/16 08:03:24;;;;;;;16.85;10.38;;;;;;;7.07;69.49;99515.39;1816417;77;21109;-48
2021/03/16 08:06:24;;;;;;;16.15;9.78;;;;;;;7.15;69.34;99516.26;1822869;77;21279;-43
2021/03/16 08:09:22;;;;;;;14.60;9.80;;;;;;;7.23;69.45;99509.17;1804127;77;21149;-45
2021/03/16 08:12:22;;;;;;;13.03;10.43;;;;;;;7.27;69.45;99505.40;1820126;77;21133;-45
2021/03/16 08:15:13;;;;;;;13.98;10.05;;;;;;;7.30;69.26;99509.19;1809792;77;21139;-45
2021/03/16 08:17:59;;;;;;;16.20;10.38;;;;;;;7.33;69.39;99507.22;1816805;77;21108;-44
2021/03/16 08:20:47;;;;;;;14.87;11.08;;;;;;;7.39;69.52;99502.01;1822595;77;21379;-42
2021/03/16 08:23:33;;;;;;;13.58;11.38;;;;;;;7.46;69.39;99495.84;1755099;79;21953;-44
2021/03/16 08:26:18;;;;;;;15.13;10.20;;;;;;;7.53;69.48;99498.05;1764465;79;21213;-49
2021/03/16 08:29:04;;;;;;;15.18;9.88;;;;;;;7.62;69.51;99497.09;1759992;80;21117;-47
2021/03/16 08:31:57;;;;;;;14.03;10.23;;;;;;;7.71;69.50;99493.41;1730449;80;21201;-48
2021/03/16 08:34:44;;;;;;;14.98;10.40;;;;;;;7.82;69.51;99490.08;1742686;80;21166;-47
2021/03/16 08:37:32;;;;;;;14.25;10.75;;;;;;;7.94;69.04;99492.44;1808150;77;21287;-47
2021/03/16 08:40:23;;;;;;;13.18;9.95;;;;;;;8.05;68.61;99491.75;1809911;77;21105;-47
2021/03/16 08:43:10;;;;;;;14.25;9.45;;;;;;;8.16;68.35;99494.08;1812228;77;21138;-47
2021/03/16 08:45:57;;;;;;;12.78;9.95;;;;;;;8.24;68.26;99497.60;1798298;77;21276;-47
2021/03/16 08:48:46;;;;;;;12.55;9.30;;;;;;;8.31;67.86;99488.75;1811814;77;21133;-47
2021/03/16 08:51:41;;;;;;;13.95;10.70;;;;;;;8.38;67.35;99498.03;1823521;77;21162;-45
2021/03/16 08:54:28;;;;;;;13.13;9.68;;;;;;;8.42;67.20;99489.80;1814777;77;21160;-49
2021/03/16 08:57:29;;;;;;;14.15;9.55;;;;;;;8.48;67.25;99486.36;1792832;77;21279;-49
2021/03/16 09:00:16;;;;;;;21.87;17.77;;;;;;;8.52;66.43;99479.42;1822032;77;21141;-47
2021/03/16 09:03:04;;;;;;;16.37;10.93;;;;;;;8.55;66.31;99484.53;1807215;77;21173;-43
2021/03/16 09:05:50;;;;;;;12.68;9.20;;;;;;;8.58;66.17;99481.66;1819963;77;21120;-43
2021/03/16 09:08:37;;;;;;;11.88;9.83;;;;;;;8.61;65.72;99479.28;1821900;77;21165;-46
2021/03/16 09:11:32;;;;;;;12.23;9.78;;;;;;;8.62;66.23;99479.67;1813911;77;21134;-45
2021/03/16 09:14:19;;;;;;;11.78;8.95;;;;;;;8.67;65.71;99488.19;1814832;77;21198;-43
2021/03/16 09:17:05;;;;;;;14.03;9.05;;;;;;;8.75;65.46;99493.84;1825303;77;21119;-43
2021/03/16 09:19:50;;;;;;;19.90;10.08;;;;;;;8.80;64.55;99488.23;1808891;77;21256;-44
2021/03/16 09:22:37;;;;;;;13.00;8.73;;;;;;;8.81;64.34;99491.25;1819673;77;21126;-45
2021/03/16 09:25:29;;;;;;;12.43;9.50;;;;;;;8.77;64.36;99487.08;1813112;77;21322;-64
2021/03/16 09:28:16;;;;;;;13.98;9.85;;;;;;;8.77;64.37;99508.34;1808563;77;21146;-43
2021/03/16 09:31:02;;;;;;;12.73;9.53;;;;;;;8.77;64.37;99508.34;1817862;77;21156;-47
2021/03/16 09:33:48;;;;;;;11.38;8.75;;;;;;;8.74;63.95;99502.75;1790185;78;21806;-47
2021/03/16 09:36:35;;;;;;;13.25;8.98;;;;;;;8.72;64.00;99503.81;1775521;78;21165;-44
2021/03/16 09:39:09;;;;;;;13.15;9.20;;;;;;;8.71;64.24;99501.63;1780614;79;21643;-41
2021/03/16 09:41:52;;;;;;;13.38;8.05;;;;;;;8.70;64.38;99503.94;1778463;78;21661;-41
2021/03/16 09:44:29;;;;;;;12.05;9.38;;;;;;;8.72;64.13;99503.36;1779913;78;21166;-47
2021/03/16 09:46:57;;;;;;;12.50;8.95;;;;;;;8.71;63.56;99502.97;1814403;76;21167;-45
2021/03/16 09:49:36;;;;;;;13.32;8.40;;;;;;;8.72;63.31;99513.11;1814725;77;21715;-45
2021/03/16 09:52:12;;;;;;;22.93;9.23;;;;;;;8.74;63.48;99513.39;1807223;77;21185;-45
2021/03/16 09:54:44;;;;;;;12.33;8.53;;;;;;;8.74;63.48;99513.39;1813980;77;21581;-46
2021/03/16 09:57:15;;;;;;;11.45;8.80;;;;;;;8.77;63.50;99510.55;1821645;77;21149;-44
2021/03/16 09:59:45;;;;;;;14.40;8.75;;;;;;;8.79;63.95;99509.10;1816643;77;21225;-41
2021/03/16 10:02:13;;;;;;;12.53;9.75;;;;;;;8.83;63.83;99515.45;1822065;77;21154;-42
2021/03/16 10:04:48;;;;;;;13.20;9.55;;;;;;;8.86;64.54;99517.89;1820856;77;22104;-42
2021/03/16 10:07:27;;;;;;;10.88;8.48;;;;;;;8.92;64.48;99510.46;1820346;77;21084;-44
2021/03/16 10:10:16;;;;;;;13.78;9.50;;;;;;;8.98;64.97;99518.05;1770254;79;21185;-44
2021/03/16 10:12:57;;;;;;;13.50;9.58;;;;;;;9.05;64.78;99516.69;1811668;77;21135;-47
2021/03/16 10:15:35;;;;;;;12.07;9.73;;;;;;;9.11;64.56;99510.94;1774852;78;21241;-51
2021/03/16 10:18:10;;;;;;;12.82;9.30;;;;;;;9.14;64.33;99512.54;1806365;77;21142;-48
2021/03/16 10:20:45;;;;;;;12.43;9.13;;;;;;;9.17;64.23;99511.88;1823841;77;21164;-45
2021/03/16 10:23:20;;;;;;;13.30;9.53;;;;;;;9.22;63.85;99512.41;1803238;77;21134;-45
2021/03/16 10:26:08;;;;;;;13.20;10.05;;;;;;;9.27;64.01;99516.94;1784647;77;21130;-39
2021/03/16 10:28:41;;;;;;;14.55;11.30;;;;;;;9.29;64.06;99517.66;1815412;77;21287;-46
2021/03/16 10:31:16;;;;;;;14.55;11.40;;;;;;;9.27;63.81;99510.29;1789341;77;21607;-46
2021/03/16 10:33:47;;;;;;;13.95;10.78;;;;;;;9.27;63.95;99500.98;1809424;77;21276;-48
2021/03/16 10:36:17;;;;;;;16.37;10.63;;;;;;;9.27;64.13;99504.09;1800302;77;21110;-45
2021/03/16 10:41:43;;;;;;;18.73;11.55;;;;;;;9.30;64.07;99508.74;1790643;78;23897;-45
2021/03/16 10:44:11;;;;;;;14.23;10.75;;;;;;;9.26;64.12;99513.04;1760352;79;21699;-44
2021/03/16 10:46:39;;;;;;;12.73;10.13;;;;;;;9.23;64.36;99503.95;1767344;79;21213;-45
2021/03/16 10:49:07;;;;;;;14.40;9.68;;;;;;;9.21;64.31;99504.03;1761763;79;21493;-44
2021/03/16 10:51:35;;;;;;;15.72;11.65;;;;;;;9.22;64.44;99503.10;1777857;79;21160;-46
2021/03/16 10:54:02;;;;;;;16.00;11.50;;;;;;;9.24;64.35;99504.30;1776340;79;21700;-45
2021/03/16 10:56:30;;;;;;;13.18;11.75;;;;;;;9.22;64.41;99493.79;1776854;79;21129;-47
2021/03/16 10:58:58;;;;;;;13.80;11.38;;;;;;;9.23;64.61;99501.28;1781393;79;21179;-46
2021/03/16 11:01:26;;;;;;;14.20;11.25;;;;;;;9.28;64.96;99490.70;1772565;79;21148;-52
2021/03/16 11:03:54;;;;;;;14.25;12.68;;;;;;;9.35;65.04;99492.92;1778912;79;21141;-50
2021/03/16 11:06:21;;;;;;;15.70;11.53;;;;;;;9.41;65.71;99481.39;1779208;78;22008;-50
2021/03/16 11:08:50;;;;;;;15.10;11.18;;;;;;;9.49;65.43;99484.36;1780398;78;22820;-51
2021/03/16 11:11:18;;;;;;;15.72;12.40;;;;;;;9.55;65.52;99476.45;1769875;80;21444;-46
2021/03/16 11:13:45;;;;;;;16.67;11.85;;;;;;;9.60;65.37;99473.44;1762311;80;21181;-47
2021/03/16 11:16:13;;;;;;;12.90;11.33;;;;;;;9.64;65.37;99471.79;1767062;80;21302;-49
2021/03/16 11:18:41;;;;;;;15.53;11.45;;;;;;;9.69;65.05;99472.80;1773203;79;21123;-49
2021/03/16 11:21:09;;;;;;;14.15;11.65;;;;;;;9.72;65.06;99474.75;1780568;79;21157;-49
2021/03/16 11:23:37;;;;;;;12.33;10.48;;;;;;;9.79;64.68;99470.34;1776230;79;21682;-47
2021/03/16 11:26:04;;;;;;;17.25;11.30;;;;;;;9.84;64.14;99477.03;1783336;79;21169;-43
2021/03/16 11:28:32;;;;;;;14.78;10.28;;;;;;;9.86;63.69;99472.46;1788132;78;21182;-47
2021/03/16 11:30:59;;;;;;;16.25;10.93;;;;;;;9.87;63.35;99477.30;1785968;79;21224;-44
2021/03/16 11:33:28;;;;;;;13.25;10.20;;;;;;;9.85;63.54;99477.43;1788132;79;21160;-49
2021/03/16 11:36:14;;;;;;;12.93;10.80;;;;;;;9.85;63.74;99474.77;1770846;79;21176;-45
2021/03/16 11:39:00;;;;;;;13.75;11.93;;;;;;;9.86;63.53;99470.28;1765564;80;21540;-44
2021/03/16 11:41:47;;;;;;;15.93;10.05;;;;;;;9.85;63.55;99465.90;1769670;79;21177;-44
2021/03/16 11:44:32;;;;;;;14.90;10.15;;;;;;;9.87;64.00;99463.98;1780427;78;21129;-46
2021/03/16 11:47:19;;;;;;;13.50;10.85;;;;;;;9.89;63.85;99461.58;1781622;79;21282;-45
2021/03/16 11:50:06;;;;;;;15.10;10.38;;;;;;;9.92;63.40;99460.02;1774033;78;21620;-46
2021/03/16 11:52:52;;;;;;;13.05;9.38;;;;;;;9.95;63.25;99458.95;1771705;78;21722;-43
2021/03/16 11:55:39;;;;;;;14.78;11.05;;;;;;;9.99;63.09;99455.12;1776925;79;21218;-43
2021/03/16 11:58:25;;;;;;;14.75;10.72;;;;;;;9.99;63.09;99455.12;1776116;78;21762;-44
2021/03/16 12:01:11;;;;;;;15.58;11.73;;;;;;;9.99;62.77;99455.12;1784012;79;21164;-44
2021/03/16 12:03:57;;;;;;;14.75;11.05;;;;;;;10.01;62.82;99455.02;1765368;79;21160;-46
2021/03/16 12:06:43;;;;;;;13.15;11.08;;;;;;;10.05;63.10;99457.81;1787324;79;21157;-43
2021/03/16 12:09:29;;;;;;;18.42;11.70;;;;;;;10.06;63.22;99454.20;1777712;79;21153;-44
2021/03/16 12:12:16;;;;;;;12.90;10.75;;;;;;;10.11;63.17;99455.56;1768301;78;21137;-43
2021/03/16 12:15:07;;;;;;;12.93;10.08;;;;;;;10.14;63.22;99451.83;1774728;79;21696;-44
2021/03/16 12:17:53;;;;;;;;;;;;;;;10.16;63.57;99448.58;1786721;78;21142;-46
2021/03/16 12:20:39;;;;;;;15.23;11.03;;;;;;;10.21;63.35;99445.09;1760489;79;20260;-46
2021/03/16 12:23:25;;;;;;;15.08;10.72;;;;;;;10.26;63.27;99442.09;1772513;79;21271;-43
2021/03/16 12:26:11;;;;;;;12.10;9.78;;;;;;;10.26;63.34;99439.44;1777562;79;21150;-42
2021/03/16 12:28:57;;;;;;;11.75;10.28;;;;;;;10.28;63.48;99435.73;1770492;79;21225;-41
2021/03/16 12:31:44;;;;;;;14.75;9.80;;;;;;;10.32;63.51;99443.84;1784000;78;21833;-50
2021/03/16 12:34:30;;;;;;;14.03;10.15;;;;;;;10.33;63.74;99446.89;1745921;81;21155;-48
2021/03/16 12:37:17;;;;;;;11.45;10.25;;;;;;;10.37;63.82;99449.69;1739983;81;21153;-43
2021/03/16 12:40:04;;;;;;;14.98;9.40;;;;;;;10.42;63.63;99449.34;1707667;82;21196;-45